Archival Weather

Norman Y Mineta San Jose Intl

San Jose, California (KSJC)

Report from: Wednesday, February 7, 2024 11:53 PM PST
Current time: Monday, June 24, 2024 3:59 AM PDT

Current weather – Weather history – Daily summaries
Weather forecast

Temperature10.0°C (50.0°F)
Wind chill7.5°C (45.6°F)
Dew point3.3°C (37.9°F)
Winds 10 kts (5.1 m/s, 11.5 mph) North-Northwest (330°)
Visibility10 mi. (16.1 km)
Clouds Ceiling: Broken clouds 3,800 ft. (1,158 m)
Altimeter29.89 in.Hg (1012 mB)
Relative humidity63 %
Density altitude-447 ft. (-136 m)
Sea-level pressure101.2 kPa (1012 mB, 29.89 in.Hg)
Max temp last 24 hours13.3°C (55.9°F)
Min temp last 24 hours7.2°C (45.0°F)
Remarks Automated weather observing station with precipitation discriminator
Flight conditions Visual Meteorological Conditions
Raw dataKSJC 080753Z 33010KT 10SM BKN038 10/03 A2989 RMK AO2 SLP122 T01000033 401330072
An error has occurred. This application may no longer respond until reloaded. Reload 🗙